Pagrindinis puslapis
METAR-TAF:

METAR-TAF

Oro uostai :

Kiurasao, Nyderlandų Antilai

platuma: 12-12N, ilguma: 068-58W, Aukštis: 9 m

Dabartinis oras

Ataskaita buvo paskelbta 58 minutes, ne 21:00 UTC
Vėjas 14 kt iš Rytų
Temperatūra 29°C
Drėgmė 70%
Slėgis 1011 hPa
Matomumas 10 km arba daugiau
Mažai debesys ne aukštis 2000 ft

METAR: TNCC 302100Z 08014KT 9999 FEW020 29/23 Q1011 NOSIG

Laikas: 17:58 (21:58 UTC)

Prognozė

Ataskaita buvo paskelbta 4 valandos ir 57 minutes, ne 17:01 UTC
Prognozė galioja nuo 30 metu 18 UTC su 31 metu 18 UTC
Vėjas 16 kt iš Rytų
Matomumas 10 km arba daugiau
Išsisklaidę debesys ne aukštis 2500 ft
Tikimybė 30% :
Laikinai
nuo 31 metu 12 UTC su 31 metu 18 UTC
Su prošvaistėmis ne aukštis 1800 ft

TAF: TNCC 301701Z 3018/3118 10016KT 9999 SCT025 PROB30 TEMPO 3112/3118 BKN018

Orai ataskaitas ir orų prognozės (METAR, TAF).

turimą stotys yra geltonos ir raudonos taškus žemėlapyje.

Perkelti pele per norėdami pamatyti stoties vardą.

Tada spustelėkite, norėdami matyti oro stebėjimo ir prognozės.

Norėdami pakeisti žemėlapį: spustelėkite ant žalios mygtukų su juodo kryžiaus žemyn,; žalią mygtuką su brūkšneliu, jei norite nutolinti; arba žalių rodyklių gretimoms žemėlapius.


METAR-TAF: